sensor_id;sensor_type;location;lat;lon;timestamp;P1;durP1;ratioP1;P2;durP2;ratioP2
50858;SDS011;36826;47.514;19.056;2022-09-13T00:01:38;1.77;;;1.02;;
50858;SDS011;36826;47.514;19.056;2022-09-13T00:04:03;2.83;;;1.00;;
50858;SDS011;36826;47.514;19.056;2022-09-13T00:06:29;2.05;;;0.93;;
50858;SDS011;36826;47.514;19.056;2022-09-13T00:08:55;3.30;;;1.10;;
50858;SDS011;36826;47.514;19.056;2022-09-13T00:11:23;1.33;;;0.80;;
50858;SDS011;36826;47.514;19.056;2022-09-13T00:13:51;2.17;;;1.08;;
50858;SDS011;36826;47.514;19.056;2022-09-13T00:16:18;1.90;;;0.90;;
50858;SDS011;36826;47.514;19.056;2022-09-13T00:18:46;3.00;;;1.27;;
50858;SDS011;36826;47.514;19.056;2022-09-13T00:21:15;1.95;;;1.00;;
50858;SDS011;36826;47.514;19.056;2022-09-13T00:23:46;1.85;;;0.93;;
50858;SDS011;36826;47.514;19.056;2022-09-13T00:26:14;1.98;;;0.88;;
50858;SDS011;36826;47.514;19.056;2022-09-13T00:28:42;2.42;;;0.90;;
50858;SDS011;36826;47.514;19.056;2022-09-13T00:31:09;1.83;;;1.00;;
50858;SDS011;36826;47.514;19.056;2022-09-13T00:33:36;2.50;;;0.80;;
50858;SDS011;36826;47.514;19.056;2022-09-13T00:36:02;2.17;;;0.52;;
50858;SDS011;36826;47.514;19.056;2022-09-13T00:38:39;3.35;;;1.00;;
50858;SDS011;36826;47.514;19.056;2022-09-13T00:41:06;1.38;;;0.80;;
50858;SDS011;36826;47.514;19.056;2022-09-13T00:43:46;1.55;;;0.75;;
50858;SDS011;36826;47.514;19.056;2022-09-13T00:51:49;1.50;;;0.73;;
50858;SDS011;36826;47.514;19.056;2022-09-13T00:54:19;3.50;;;0.90;;
50858;SDS011;36826;47.514;19.056;2022-09-13T00:56:51;1.50;;;0.90;;
50858;SDS011;36826;47.514;19.056;2022-09-13T00:59:22;2.03;;;0.88;;
50858;SDS011;36826;47.514;19.056;2022-09-13T01:01:52;2.83;;;1.00;;
50858;SDS011;36826;47.514;19.056;2022-09-13T01:04:21;2.45;;;0.98;;
50858;SDS011;36826;47.514;19.056;2022-09-13T01:06:49;1.67;;;0.80;;
50858;SDS011;36826;47.514;19.056;2022-09-13T01:09:18;2.13;;;0.90;;
50858;SDS011;36826;47.514;19.056;2022-09-13T01:11:48;2.53;;;1.20;;
50858;SDS011;36826;47.514;19.056;2022-09-13T01:14:28;2.90;;;1.10;;
50858;SDS011;36826;47.514;19.056;2022-09-13T01:16:56;1.98;;;1.20;;
50858;SDS011;36826;47.514;19.056;2022-09-13T01:19:21;2.42;;;1.23;;
50858;SDS011;36826;47.514;19.056;2022-09-13T01:22:04;3.45;;;1.30;;
50858;SDS011;36826;47.514;19.056;2022-09-13T01:25:12;2.25;;;1.33;;
50858;SDS011;36826;47.514;19.056;2022-09-13T01:28:35;5.50;;;1.73;;
50858;SDS011;36826;47.514;19.056;2022-09-13T01:31:06;2.05;;;1.40;;
50858;SDS011;36826;47.514;19.056;2022-09-13T01:37:00;3.33;;;1.40;;
50858;SDS011;36826;47.514;19.056;2022-09-13T01:39:48;2.25;;;1.45;;
50858;SDS011;36826;47.514;19.056;2022-09-13T01:45:37;1.88;;;1.35;;
50858;SDS011;36826;47.514;19.056;2022-09-13T01:48:19;4.07;;;1.20;;
50858;SDS011;36826;47.514;19.056;2022-09-13T01:50:59;3.10;;;1.20;;
50858;SDS011;36826;47.514;19.056;2022-09-13T01:59:28;3.80;;;1.30;;
50858;SDS011;36826;47.514;19.056;2022-09-13T02:01:59;3.10;;;1.20;;
50858;SDS011;36826;47.514;19.056;2022-09-13T02:04:36;1.88;;;1.20;;
50858;SDS011;36826;47.514;19.056;2022-09-13T02:07:23;3.03;;;1.25;;
50858;SDS011;36826;47.514;19.056;2022-09-13T02:10:02;2.72;;;1.30;;
50858;SDS011;36826;47.514;19.056;2022-09-13T02:12:33;3.22;;;1.35;;
50858;SDS011;36826;47.514;19.056;2022-09-13T02:18:08;2.25;;;1.48;;
50858;SDS011;36826;47.514;19.056;2022-09-13T02:20:41;3.88;;;1.45;;
50858;SDS011;36826;47.514;19.056;2022-09-13T02:23:13;2.30;;;1.48;;
50858;SDS011;36826;47.514;19.056;2022-09-13T02:25:45;2.33;;;1.30;;
50858;SDS011;36826;47.514;19.056;2022-09-13T02:28:15;2.05;;;1.25;;
50858;SDS011;36826;47.514;19.056;2022-09-13T02:30:47;3.25;;;1.67;;
50858;SDS011;36826;47.514;19.056;2022-09-13T02:33:18;2.92;;;1.65;;
50858;SDS011;36826;47.514;19.056;2022-09-13T02:36:06;4.43;;;1.40;;
50858;SDS011;36826;47.514;19.056;2022-09-13T02:38:42;6.13;;;1.85;;
50858;SDS011;36826;47.514;19.056;2022-09-13T02:41:22;2.58;;;1.55;;
50858;SDS011;36826;47.514;19.056;2022-09-13T02:43:52;2.85;;;1.40;;
50858;SDS011;36826;47.514;19.056;2022-09-13T02:57:55;2.70;;;1.52;;
50858;SDS011;36826;47.514;19.056;2022-09-13T03:00:42;4.15;;;1.42;;
50858;SDS011;36826;47.514;19.056;2022-09-13T03:03:10;3.83;;;1.30;;
50858;SDS011;36826;47.514;19.056;2022-09-13T03:05:41;3.10;;;1.48;;
50858;SDS011;36826;47.514;19.056;2022-09-13T03:08:13;5.20;;;1.30;;
50858;SDS011;36826;47.514;19.056;2022-09-13T03:10:48;2.60;;;1.48;;
50858;SDS011;36826;47.514;19.056;2022-09-13T03:13:29;3.13;;;1.20;;
50858;SDS011;36826;47.514;19.056;2022-09-13T03:24:28;2.50;;;1.58;;
50858;SDS011;36826;47.514;19.056;2022-09-13T03:38:37;3.85;;;1.50;;
50858;SDS011;36826;47.514;19.056;2022-09-13T03:41:21;2.50;;;1.48;;
50858;SDS011;36826;47.514;19.056;2022-09-13T03:43:56;3.47;;;1.70;;
50858;SDS011;36826;47.514;19.056;2022-09-13T03:46:29;2.67;;;1.83;;
50858;SDS011;36826;47.514;19.056;2022-09-13T03:49:06;4.38;;;2.03;;
50858;SDS011;36826;47.514;19.056;2022-09-13T03:51:35;3.65;;;1.70;;
50858;SDS011;36826;47.514;19.056;2022-09-13T03:54:03;3.70;;;2.00;;
50858;SDS011;36826;47.514;19.056;2022-09-13T03:56:38;3.60;;;1.80;;
50858;SDS011;36826;47.514;19.056;2022-09-13T03:59:03;3.75;;;2.17;;
50858;SDS011;36826;47.514;19.056;2022-09-13T04:01:28;5.50;;;2.08;;
50858;SDS011;36826;47.514;19.056;2022-09-13T04:03:55;3.17;;;1.98;;
50858;SDS011;36826;47.514;19.056;2022-09-13T04:06:20;2.85;;;2.15;;
50858;SDS011;36826;47.514;19.056;2022-09-13T04:08:46;3.17;;;1.90;;
50858;SDS011;36826;47.514;19.056;2022-09-13T04:11:12;3.45;;;2.30;;
50858;SDS011;36826;47.514;19.056;2022-09-13T04:13:37;2.60;;;2.15;;
50858;SDS011;36826;47.514;19.056;2022-09-13T04:16:05;5.50;;;2.10;;
50858;SDS011;36826;47.514;19.056;2022-09-13T04:18:31;6.75;;;2.28;;
50858;SDS011;36826;47.514;19.056;2022-09-13T04:20:58;4.45;;;1.98;;
50858;SDS011;36826;47.514;19.056;2022-09-13T04:23:34;3.38;;;2.25;;
50858;SDS011;36826;47.514;19.056;2022-09-13T04:26:04;4.47;;;2.20;;
50858;SDS011;36826;47.514;19.056;2022-09-13T04:28:30;3.35;;;1.75;;
50858;SDS011;36826;47.514;19.056;2022-09-13T04:30:56;5.88;;;1.95;;
50858;SDS011;36826;47.514;19.056;2022-09-13T04:33:22;2.42;;;1.67;;
50858;SDS011;36826;47.514;19.056;2022-09-13T04:35:52;3.10;;;1.80;;
50858;SDS011;36826;47.514;19.056;2022-09-13T04:38:23;3.25;;;1.85;;
50858;SDS011;36826;47.514;19.056;2022-09-13T04:40:52;3.50;;;1.52;;
50858;SDS011;36826;47.514;19.056;2022-09-13T04:43:21;2.97;;;1.77;;
50858;SDS011;36826;47.514;19.056;2022-09-13T04:45:48;3.97;;;1.73;;
50858;SDS011;36826;47.514;19.056;2022-09-13T04:48:14;2.65;;;1.67;;
50858;SDS011;36826;47.514;19.056;2022-09-13T04:50:41;2.30;;;1.50;;
50858;SDS011;36826;47.514;19.056;2022-09-13T04:53:07;3.70;;;1.38;;
50858;SDS011;36826;47.514;19.056;2022-09-13T04:55:34;2.35;;;1.35;;
50858;SDS011;36826;47.514;19.056;2022-09-13T04:58:02;3.47;;;1.42;;
50858;SDS011;36826;47.514;19.056;2022-09-13T05:00:34;2.47;;;1.50;;
50858;SDS011;36826;47.514;19.056;2022-09-13T05:03:01;4.55;;;1.50;;
50858;SDS011;36826;47.514;19.056;2022-09-13T05:05:28;2.47;;;1.25;;
50858;SDS011;36826;47.514;19.056;2022-09-13T05:07:56;3.03;;;1.33;;
50858;SDS011;36826;47.514;19.056;2022-09-13T05:10:22;2.67;;;1.55;;
50858;SDS011;36826;47.514;19.056;2022-09-13T05:12:51;5.75;;;1.80;;
50858;SDS011;36826;47.514;19.056;2022-09-13T05:15:18;4.13;;;1.73;;
50858;SDS011;36826;47.514;19.056;2022-09-13T05:17:44;3.83;;;1.70;;
50858;SDS011;36826;47.514;19.056;2022-09-13T05:20:18;3.78;;;1.50;;
50858;SDS011;36826;47.514;19.056;2022-09-13T05:22:43;3.42;;;1.52;;
50858;SDS011;36826;47.514;19.056;2022-09-13T05:25:10;3.28;;;1.30;;
50858;SDS011;36826;47.514;19.056;2022-09-13T05:27:36;3.75;;;1.95;;
50858;SDS011;36826;47.514;19.056;2022-09-13T05:30:05;4.38;;;1.45;;
50858;SDS011;36826;47.514;19.056;2022-09-13T05:32:40;3.25;;;1.75;;
50858;SDS011;36826;47.514;19.056;2022-09-13T05:35:12;4.20;;;1.50;;
50858;SDS011;36826;47.514;19.056;2022-09-13T05:37:38;4.45;;;1.70;;
50858;SDS011;36826;47.514;19.056;2022-09-13T05:40:07;5.93;;;1.83;;
50858;SDS011;36826;47.514;19.056;2022-09-13T05:42:33;7.20;;;1.40;;
50858;SDS011;36826;47.514;19.056;2022-09-13T05:44:59;4.35;;;1.58;;
50858;SDS011;36826;47.514;19.056;2022-09-13T05:47:24;5.65;;;1.60;;
50858;SDS011;36826;47.514;19.056;2022-09-13T05:49:51;2.05;;;1.10;;
50858;SDS011;36826;47.514;19.056;2022-09-13T05:52:20;2.70;;;1.20;;
50858;SDS011;36826;47.514;19.056;2022-09-13T05:55:03;7.10;;;1.10;;
50858;SDS011;36826;47.514;19.056;2022-09-13T05:57:29;5.43;;;1.10;;
50858;SDS011;36826;47.514;19.056;2022-09-13T05:59:55;3.92;;;1.15;;
50858;SDS011;36826;47.514;19.056;2022-09-13T06:02:29;2.00;;;1.00;;
50858;SDS011;36826;47.514;19.056;2022-09-13T06:04:59;3.78;;;1.05;;
50858;SDS011;36826;47.514;19.056;2022-09-13T06:07:27;2.80;;;1.10;;
50858;SDS011;36826;47.514;19.056;2022-09-13T06:09:55;2.63;;;1.10;;
50858;SDS011;36826;47.514;19.056;2022-09-13T06:12:37;5.15;;;1.30;;
50858;SDS011;36826;47.514;19.056;2022-09-13T06:15:03;5.78;;;1.27;;
50858;SDS011;36826;47.514;19.056;2022-09-13T06:17:43;5.00;;;1.35;;
50858;SDS011;36826;47.514;19.056;2022-09-13T06:20:12;5.35;;;1.55;;
50858;SDS011;36826;47.514;19.056;2022-09-13T06:23:11;3.25;;;1.45;;
50858;SDS011;36826;47.514;19.056;2022-09-13T06:25:41;7.55;;;1.65;;
50858;SDS011;36826;47.514;19.056;2022-09-13T06:37:13;3.67;;;1.77;;
50858;SDS011;36826;47.514;19.056;2022-09-13T06:53:41;6.78;;;1.92;;
50858;SDS011;36826;47.514;19.056;2022-09-13T06:56:34;7.22;;;1.30;;
50858;SDS011;36826;47.514;19.056;2022-09-13T06:59:26;5.60;;;1.98;;
50858;SDS011;36826;47.514;19.056;2022-09-13T07:05:05;7.47;;;2.78;;
50858;SDS011;36826;47.514;19.056;2022-09-13T07:07:43;8.18;;;2.90;;
50858;SDS011;36826;47.514;19.056;2022-09-13T07:10:37;7.53;;;2.63;;
50858;SDS011;36826;47.514;19.056;2022-09-13T07:16:05;7.38;;;3.50;;
50858;SDS011;36826;47.514;19.056;2022-09-13T07:18:38;4.88;;;2.30;;
50858;SDS011;36826;47.514;19.056;2022-09-13T07:21:09;10.90;;;3.10;;
50858;SDS011;36826;47.514;19.056;2022-09-13T07:23:45;2.80;;;1.20;;
50858;SDS011;36826;47.514;19.056;2022-09-13T07:26:14;2.95;;;1.25;;
50858;SDS011;36826;47.514;19.056;2022-09-13T07:28:43;8.25;;;1.20;;
50858;SDS011;36826;47.514;19.056;2022-09-13T07:34:17;4.97;;;1.50;;
50858;SDS011;36826;47.514;19.056;2022-09-13T07:36:46;5.68;;;1.50;;
50858;SDS011;36826;47.514;19.056;2022-09-13T07:39:14;6.22;;;1.45;;
50858;SDS011;36826;47.514;19.056;2022-09-13T07:44:41;3.13;;;0.82;;
50858;SDS011;36826;47.514;19.056;2022-09-13T07:47:08;3.55;;;0.85;;
50858;SDS011;36826;47.514;19.056;2022-09-13T07:49:46;2.72;;;1.00;;
50858;SDS011;36826;47.514;19.056;2022-09-13T07:52:12;3.30;;;0.90;;
50858;SDS011;36826;47.514;19.056;2022-09-13T07:54:38;4.38;;;1.35;;
50858;SDS011;36826;47.514;19.056;2022-09-13T07:57:12;2.72;;;0.98;;
50858;SDS011;36826;47.514;19.056;2022-09-13T07:59:42;3.65;;;1.20;;
50858;SDS011;36826;47.514;19.056;2022-09-13T08:02:10;5.32;;;1.27;;
50858;SDS011;36826;47.514;19.056;2022-09-13T08:04:40;3.38;;;1.20;;
50858;SDS011;36826;47.514;19.056;2022-09-13T08:07:19;3.45;;;1.30;;
50858;SDS011;36826;47.514;19.056;2022-09-13T08:09:48;5.18;;;1.15;;
50858;SDS011;36826;47.514;19.056;2022-09-13T08:14:51;6.32;;;1.38;;
50858;SDS011;36826;47.514;19.056;2022-09-13T08:17:37;2.95;;;1.15;;
50858;SDS011;36826;47.514;19.056;2022-09-13T08:20:06;4.20;;;1.40;;
50858;SDS011;36826;47.514;19.056;2022-09-13T08:22:33;4.38;;;1.30;;
50858;SDS011;36826;47.514;19.056;2022-09-13T08:25:07;6.90;;;1.70;;
50858;SDS011;36826;47.514;19.056;2022-09-13T08:27:50;3.55;;;1.38;;
50858;SDS011;36826;47.514;19.056;2022-09-13T08:30:20;5.65;;;1.35;;
50858;SDS011;36826;47.514;19.056;2022-09-13T08:32:49;3.47;;;1.60;;
50858;SDS011;36826;47.514;19.056;2022-09-13T08:35:26;4.18;;;1.55;;
50858;SDS011;36826;47.514;19.056;2022-09-13T08:37:55;5.18;;;1.48;;
50858;SDS011;36826;47.514;19.056;2022-09-13T08:40:23;2.23;;;1.40;;
50858;SDS011;36826;47.514;19.056;2022-09-13T08:45:50;4.03;;;1.40;;
50858;SDS011;36826;47.514;19.056;2022-09-13T08:48:22;4.38;;;1.17;;
50858;SDS011;36826;47.514;19.056;2022-09-13T08:50:58;4.22;;;1.48;;
50858;SDS011;36826;47.514;19.056;2022-09-13T08:53:36;3.67;;;0.95;;
50858;SDS011;36826;47.514;19.056;2022-09-13T08:56:17;5.90;;;1.80;;
50858;SDS011;36826;47.514;19.056;2022-09-13T09:04:41;3.92;;;1.25;;
50858;SDS011;36826;47.514;19.056;2022-09-13T09:07:16;6.00;;;1.50;;
50858;SDS011;36826;47.514;19.056;2022-09-13T09:09:50;2.28;;;1.00;;
50858;SDS011;36826;47.514;19.056;2022-09-13T09:15:15;5.53;;;1.45;;
50858;SDS011;36826;47.514;19.056;2022-09-13T09:20:59;2.10;;;1.20;;
50858;SDS011;36826;47.514;19.056;2022-09-13T09:26:34;5.45;;;1.75;;
50858;SDS011;36826;47.514;19.056;2022-09-13T09:29:13;2.85;;;1.48;;
50858;SDS011;36826;47.514;19.056;2022-09-13T09:35:19;1.77;;;1.00;;
50858;SDS011;36826;47.514;19.056;2022-09-13T09:40:47;2.42;;;0.90;;
50858;SDS011;36826;47.514;19.056;2022-09-13T09:43:20;3.63;;;1.08;;
50858;SDS011;36826;47.514;19.056;2022-09-13T09:45:52;4.13;;;1.00;;
50858;SDS011;36826;47.514;19.056;2022-09-13T09:48:23;3.90;;;0.90;;
50858;SDS011;36826;47.514;19.056;2022-09-13T09:50:55;3.20;;;1.20;;
50858;SDS011;36826;47.514;19.056;2022-09-13T09:53:44;1.95;;;0.95;;
50858;SDS011;36826;47.514;19.056;2022-09-13T09:56:30;3.17;;;1.00;;
50858;SDS011;36826;47.514;19.056;2022-09-13T09:58:59;2.40;;;0.68;;
50858;SDS011;36826;47.514;19.056;2022-09-13T10:01:48;2.10;;;0.70;;
50858;SDS011;36826;47.514;19.056;2022-09-13T10:04:36;2.75;;;0.63;;
50858;SDS011;36826;47.514;19.056;2022-09-13T10:12:54;2.28;;;0.80;;
50858;SDS011;36826;47.514;19.056;2022-09-13T10:15:23;3.13;;;0.90;;
50858;SDS011;36826;47.514;19.056;2022-09-13T10:18:12;3.50;;;1.08;;
50858;SDS011;36826;47.514;19.056;2022-09-13T10:23:50;2.25;;;0.82;;
50858;SDS011;36826;47.514;19.056;2022-09-13T10:26:21;3.47;;;1.00;;
50858;SDS011;36826;47.514;19.056;2022-09-13T10:31:52;5.78;;;1.05;;
50858;SDS011;36826;47.514;19.056;2022-09-13T10:34:21;2.97;;;1.00;;
50858;SDS011;36826;47.514;19.056;2022-09-13T10:36:56;4.00;;;0.93;;
50858;SDS011;36826;47.514;19.056;2022-09-13T10:39:58;2.08;;;0.82;;
50858;SDS011;36826;47.514;19.056;2022-09-13T10:42:36;2.50;;;1.10;;
50858;SDS011;36826;47.514;19.056;2022-09-13T10:48:01;3.83;;;1.15;;
50858;SDS011;36826;47.514;19.056;2022-09-13T10:50:40;3.88;;;1.40;;
50858;SDS011;36826;47.514;19.056;2022-09-13T10:53:38;5.87;;;1.83;;
50858;SDS011;36826;47.514;19.056;2022-09-13T10:56:25;6.05;;;1.50;;
50858;SDS011;36826;47.514;19.056;2022-09-13T11:01:45;4.65;;;1.30;;
50858;SDS011;36826;47.514;19.056;2022-09-13T11:19:13;4.35;;;1.83;;
50858;SDS011;36826;47.514;19.056;2022-09-13T11:22:06;4.43;;;1.58;;
50858;SDS011;36826;47.514;19.056;2022-09-13T11:30:22;2.50;;;0.83;;
50858;SDS011;36826;47.514;19.056;2022-09-13T11:36:01;2.25;;;0.98;;
50858;SDS011;36826;47.514;19.056;2022-09-13T11:39:02;2.88;;;1.00;;
50858;SDS011;36826;47.514;19.056;2022-09-13T11:44:47;2.70;;;1.00;;
50858;SDS011;36826;47.514;19.056;2022-09-13T11:47:44;3.78;;;1.30;;
50858;SDS011;36826;47.514;19.056;2022-09-13T11:53:33;3.45;;;0.82;;
50858;SDS011;36826;47.514;19.056;2022-09-13T11:56:13;7.38;;;0.90;;
50858;SDS011;36826;47.514;19.056;2022-09-13T12:01:21;2.90;;;0.85;;
50858;SDS011;36826;47.514;19.056;2022-09-13T12:04:14;3.20;;;0.88;;
50858;SDS011;36826;47.514;19.056;2022-09-13T12:07:05;4.03;;;1.00;;
50858;SDS011;36826;47.514;19.056;2022-09-13T12:09:50;3.00;;;0.80;;
50858;SDS011;36826;47.514;19.056;2022-09-13T12:12:21;3.67;;;0.80;;
50858;SDS011;36826;47.514;19.056;2022-09-13T12:14:58;2.83;;;1.17;;
50858;SDS011;36826;47.514;19.056;2022-09-13T12:17:38;2.75;;;1.17;;
50858;SDS011;36826;47.514;19.056;2022-09-13T12:20:43;5.90;;;0.70;;
50858;SDS011;36826;47.514;19.056;2022-09-13T12:23:37;4.05;;;1.02;;
50858;SDS011;36826;47.514;19.056;2022-09-13T12:28:48;3.28;;;0.63;;
50858;SDS011;36826;47.514;19.056;2022-09-13T12:31:30;1.50;;;0.70;;
50858;SDS011;36826;47.514;19.056;2022-09-13T12:34:12;3.25;;;0.70;;
50858;SDS011;36826;47.514;19.056;2022-09-13T12:37:27;1.92;;;0.80;;
50858;SDS011;36826;47.514;19.056;2022-09-13T12:52:02;6.00;;;1.00;;
50858;SDS011;36826;47.514;19.056;2022-09-13T12:55:00;3.53;;;0.80;;
50858;SDS011;36826;47.514;19.056;2022-09-13T12:57:54;2.38;;;0.70;;
50858;SDS011;36826;47.514;19.056;2022-09-13T13:00:27;3.00;;;0.85;;
50858;SDS011;36826;47.514;19.056;2022-09-13T13:03:14;1.83;;;0.50;;
50858;SDS011;36826;47.514;19.056;2022-09-13T13:05:45;1.98;;;0.75;;
50858;SDS011;36826;47.514;19.056;2022-09-13T13:13:54;7.22;;;1.10;;
50858;SDS011;36826;47.514;19.056;2022-09-13T13:16:49;3.88;;;0.60;;
50858;SDS011;36826;47.514;19.056;2022-09-13T13:19:46;6.45;;;0.70;;
50858;SDS011;36826;47.514;19.056;2022-09-13T13:36:48;2.65;;;0.75;;
50858;SDS011;36826;47.514;19.056;2022-09-13T13:42:46;2.95;;;0.80;;
50858;SDS011;36826;47.514;19.056;2022-09-13T13:45:25;2.58;;;1.00;;
50858;SDS011;36826;47.514;19.056;2022-09-13T13:48:11;4.38;;;1.02;;
50858;SDS011;36826;47.514;19.056;2022-09-13T13:51:19;4.13;;;0.82;;
50858;SDS011;36826;47.514;19.056;2022-09-13T13:53:49;4.65;;;0.80;;
50858;SDS011;36826;47.514;19.056;2022-09-13T13:56:31;5.90;;;1.00;;
50858;SDS011;36826;47.514;19.056;2022-09-13T13:59:03;4.28;;;1.40;;
50858;SDS011;36826;47.514;19.056;2022-09-13T14:01:41;3.60;;;0.80;;
50858;SDS011;36826;47.514;19.056;2022-09-13T14:04:29;1.70;;;0.65;;
50858;SDS011;36826;47.514;19.056;2022-09-13T14:19:22;5.28;;;0.80;;
50858;SDS011;36826;47.514;19.056;2022-09-13T14:24:50;2.47;;;0.60;;
50858;SDS011;36826;47.514;19.056;2022-09-13T14:27:30;2.30;;;0.40;;
50858;SDS011;36826;47.514;19.056;2022-09-13T14:30:03;2.08;;;0.70;;
50858;SDS011;36826;47.514;19.056;2022-09-13T14:32:44;2.28;;;0.65;;
50858;SDS011;36826;47.514;19.056;2022-09-13T14:35:23;2.03;;;0.88;;
50858;SDS011;36826;47.514;19.056;2022-09-13T14:37:52;2.78;;;0.85;;
50858;SDS011;36826;47.514;19.056;2022-09-13T14:40:25;3.80;;;1.02;;
50858;SDS011;36826;47.514;19.056;2022-09-13T14:42:52;1.17;;;0.38;;
50858;SDS011;36826;47.514;19.056;2022-09-13T14:45:22;2.83;;;0.60;;
50858;SDS011;36826;47.514;19.056;2022-09-13T14:53:30;1.27;;;0.43;;
50858;SDS011;36826;47.514;19.056;2022-09-13T14:56:01;1.75;;;0.60;;
50858;SDS011;36826;47.514;19.056;2022-09-13T14:58:47;3.22;;;0.90;;
50858;SDS011;36826;47.514;19.056;2022-09-13T15:01:18;5.55;;;1.02;;
50858;SDS011;36826;47.514;19.056;2022-09-13T15:03:53;2.03;;;0.57;;
50858;SDS011;36826;47.514;19.056;2022-09-13T15:06:23;3.95;;;0.60;;
50858;SDS011;36826;47.514;19.056;2022-09-13T15:14:27;1.47;;;0.40;;
50858;SDS011;36826;47.514;19.056;2022-09-13T15:19:42;2.28;;;0.60;;
50858;SDS011;36826;47.514;19.056;2022-09-13T15:24:55;2.33;;;0.90;;
50858;SDS011;36826;47.514;19.056;2022-09-13T15:29:58;3.22;;;0.70;;
50858;SDS011;36826;47.514;19.056;2022-09-13T15:32:34;1.20;;;0.43;;
50858;SDS011;36826;47.514;19.056;2022-09-13T15:35:24;6.15;;;0.60;;
50858;SDS011;36826;47.514;19.056;2022-09-13T15:40:59;2.13;;;0.60;;
50858;SDS011;36826;47.514;19.056;2022-09-13T15:43:37;3.67;;;0.50;;
50858;SDS011;36826;47.514;19.056;2022-09-13T15:46:03;2.35;;;0.73;;
50858;SDS011;36826;47.514;19.056;2022-09-13T15:48:33;1.77;;;0.50;;
50858;SDS011;36826;47.514;19.056;2022-09-13T15:51:13;2.10;;;0.93;;
50858;SDS011;36826;47.514;19.056;2022-09-13T15:53:40;2.80;;;0.80;;
50858;SDS011;36826;47.514;19.056;2022-09-13T15:56:08;2.85;;;1.58;;
50858;SDS011;36826;47.514;19.056;2022-09-13T15:58:38;2.40;;;1.35;;
50858;SDS011;36826;47.514;19.056;2022-09-13T16:01:04;4.13;;;1.10;;
50858;SDS011;36826;47.514;19.056;2022-09-13T16:03:30;2.28;;;0.68;;
50858;SDS011;36826;47.514;19.056;2022-09-13T16:05:57;2.58;;;0.88;;
50858;SDS011;36826;47.514;19.056;2022-09-13T16:08:23;3.53;;;0.80;;
50858;SDS011;36826;47.514;19.056;2022-09-13T16:10:50;3.35;;;1.10;;
50858;SDS011;36826;47.514;19.056;2022-09-13T16:13:17;2.85;;;1.05;;
50858;SDS011;36826;47.514;19.056;2022-09-13T16:15:43;2.78;;;1.20;;
50858;SDS011;36826;47.514;19.056;2022-09-13T16:18:13;2.53;;;1.25;;
50858;SDS011;36826;47.514;19.056;2022-09-13T16:20:46;2.85;;;0.75;;
50858;SDS011;36826;47.514;19.056;2022-09-13T16:23:15;3.85;;;0.90;;
50858;SDS011;36826;47.514;19.056;2022-09-13T16:25:43;2.05;;;0.73;;
50858;SDS011;36826;47.514;19.056;2022-09-13T16:28:14;3.55;;;0.90;;
50858;SDS011;36826;47.514;19.056;2022-09-13T16:30:49;1.70;;;0.70;;
50858;SDS011;36826;47.514;19.056;2022-09-13T16:33:15;2.78;;;0.80;;
50858;SDS011;36826;47.514;19.056;2022-09-13T16:35:46;1.90;;;0.77;;
50858;SDS011;36826;47.514;19.056;2022-09-13T16:38:16;2.67;;;0.70;;
50858;SDS011;36826;47.514;19.056;2022-09-13T16:40:42;1.92;;;0.75;;
50858;SDS011;36826;47.514;19.056;2022-09-13T16:43:15;2.70;;;0.85;;
50858;SDS011;36826;47.514;19.056;2022-09-13T16:45:47;2.15;;;0.65;;
50858;SDS011;36826;47.514;19.056;2022-09-13T16:48:14;2.60;;;0.90;;
50858;SDS011;36826;47.514;19.056;2022-09-13T16:50:40;2.67;;;1.35;;
50858;SDS011;36826;47.514;19.056;2022-09-13T16:53:06;2.67;;;1.20;;
50858;SDS011;36826;47.514;19.056;2022-09-13T16:55:32;5.25;;;1.30;;
50858;SDS011;36826;47.514;19.056;2022-09-13T16:57:58;3.75;;;1.83;;
50858;SDS011;36826;47.514;19.056;2022-09-13T17:00:23;3.47;;;1.67;;
50858;SDS011;36826;47.514;19.056;2022-09-13T17:02:53;2.83;;;1.23;;
50858;SDS011;36826;47.514;19.056;2022-09-13T17:05:21;3.57;;;0.90;;
50858;SDS011;36826;47.514;19.056;2022-09-13T17:10:16;4.15;;;1.95;;
50858;SDS011;36826;47.514;19.056;2022-09-13T17:12:42;2.58;;;1.67;;
50858;SDS011;36826;47.514;19.056;2022-09-13T17:15:08;3.30;;;1.52;;
50858;SDS011;36826;47.514;19.056;2022-09-13T17:17:34;2.70;;;1.20;;
50858;SDS011;36826;47.514;19.056;2022-09-13T17:22:32;2.95;;;1.20;;
50858;SDS011;36826;47.514;19.056;2022-09-13T17:24:58;2.67;;;1.20;;
50858;SDS011;36826;47.514;19.056;2022-09-13T17:27:25;2.25;;;1.13;;
50858;SDS011;36826;47.514;19.056;2022-09-13T17:29:51;4.28;;;1.02;;
50858;SDS011;36826;47.514;19.056;2022-09-13T17:32:17;3.30;;;1.23;;
50858;SDS011;36826;47.514;19.056;2022-09-13T17:34:43;3.00;;;1.20;;
50858;SDS011;36826;47.514;19.056;2022-09-13T17:37:09;4.70;;;1.40;;
50858;SDS011;36826;47.514;19.056;2022-09-13T17:39:35;2.78;;;1.58;;
50858;SDS011;36826;47.514;19.056;2022-09-13T17:42:01;7.30;;;1.80;;
50858;SDS011;36826;47.514;19.056;2022-09-13T17:44:27;8.15;;;1.67;;
50858;SDS011;36826;47.514;19.056;2022-09-13T17:46:52;5.22;;;1.60;;
50858;SDS011;36826;47.514;19.056;2022-09-13T17:49:24;4.30;;;1.70;;
50858;SDS011;36826;47.514;19.056;2022-09-13T17:51:51;3.75;;;1.60;;
50858;SDS011;36826;47.514;19.056;2022-09-13T17:54:18;6.95;;;1.80;;
50858;SDS011;36826;47.514;19.056;2022-09-13T17:56:46;5.50;;;2.10;;
50858;SDS011;36826;47.514;19.056;2022-09-13T17:59:15;5.50;;;2.17;;
50858;SDS011;36826;47.514;19.056;2022-09-13T18:01:47;3.80;;;1.60;;
50858;SDS011;36826;47.514;19.056;2022-09-13T18:04:15;3.17;;;2.20;;
50858;SDS011;36826;47.514;19.056;2022-09-13T18:06:42;6.32;;;3.25;;
50858;SDS011;36826;47.514;19.056;2022-09-13T18:09:13;6.35;;;3.17;;
50858;SDS011;36826;47.514;19.056;2022-09-13T18:11:43;6.65;;;2.63;;
50858;SDS011;36826;47.514;19.056;2022-09-13T18:14:12;10.25;;;3.90;;
50858;SDS011;36826;47.514;19.056;2022-09-13T18:16:43;5.80;;;2.50;;
50858;SDS011;36826;47.514;19.056;2022-09-13T18:19:19;3.70;;;1.95;;
50858;SDS011;36826;47.514;19.056;2022-09-13T18:21:51;4.30;;;2.33;;
50858;SDS011;36826;47.514;19.056;2022-09-13T18:24:23;4.90;;;2.28;;
50858;SDS011;36826;47.514;19.056;2022-09-13T18:26:50;7.15;;;2.10;;
50858;SDS011;36826;47.514;19.056;2022-09-13T18:29:22;4.40;;;2.20;;
50858;SDS011;36826;47.514;19.056;2022-09-13T18:31:48;3.75;;;2.50;;
50858;SDS011;36826;47.514;19.056;2022-09-13T18:34:14;6.07;;;2.70;;
50858;SDS011;36826;47.514;19.056;2022-09-13T18:36:40;4.03;;;1.70;;
50858;SDS011;36826;47.514;19.056;2022-09-13T18:39:14;3.22;;;1.88;;
50858;SDS011;36826;47.514;19.056;2022-09-13T18:41:44;3.33;;;1.77;;
50858;SDS011;36826;47.514;19.056;2022-09-13T18:44:11;6.18;;;2.33;;
50858;SDS011;36826;47.514;19.056;2022-09-13T18:46:38;3.35;;;1.77;;
50858;SDS011;36826;47.514;19.056;2022-09-13T18:49:04;3.08;;;1.85;;
50858;SDS011;36826;47.514;19.056;2022-09-13T18:51:40;3.33;;;1.77;;
50858;SDS011;36826;47.514;19.056;2022-09-13T18:54:12;4.95;;;2.00;;
50858;SDS011;36826;47.514;19.056;2022-09-13T18:56:39;4.57;;;2.33;;
50858;SDS011;36826;47.514;19.056;2022-09-13T18:59:05;5.45;;;2.08;;
50858;SDS011;36826;47.514;19.056;2022-09-13T19:01:34;5.40;;;2.45;;
50858;SDS011;36826;47.514;19.056;2022-09-13T19:04:19;9.20;;;2.45;;
50858;SDS011;36826;47.514;19.056;2022-09-13T19:06:50;3.67;;;2.42;;
50858;SDS011;36826;47.514;19.056;2022-09-13T19:09:18;5.63;;;2.80;;
50858;SDS011;36826;47.514;19.056;2022-09-13T19:11:47;5.78;;;1.60;;
50858;SDS011;36826;47.514;19.056;2022-09-13T19:14:24;3.33;;;1.95;;